sensor_id;sensor_type;location;lat;lon;timestamp;temperature;humidity
3069;DHT22;1545;51.728;8.796;2023-04-06T00:01:34;3.10;76.70
3069;DHT22;1545;51.728;8.796;2023-04-06T00:03:59;3.00;76.80
3069;DHT22;1545;51.728;8.796;2023-04-06T00:06:25;3.00;77.00
3069;DHT22;1545;51.728;8.796;2023-04-06T00:08:51;3.00;77.20
3069;DHT22;1545;51.728;8.796;2023-04-06T00:11:17;3.00;77.20
3069;DHT22;1545;51.728;8.796;2023-04-06T00:13:42;2.90;77.30
3069;DHT22;1545;51.728;8.796;2023-04-06T00:16:08;2.90;77.30
3069;DHT22;1545;51.728;8.796;2023-04-06T00:18:33;2.90;77.30
3069;DHT22;1545;51.728;8.796;2023-04-06T00:20:59;2.90;77.30
3069;DHT22;1545;51.728;8.796;2023-04-06T00:23:25;2.90;77.40
3069;DHT22;1545;51.728;8.796;2023-04-06T00:25:50;2.90;77.50
3069;DHT22;1545;51.728;8.796;2023-04-06T00:28:16;2.90;77.60
3069;DHT22;1545;51.728;8.796;2023-04-06T00:30:41;2.80;77.70
3069;DHT22;1545;51.728;8.796;2023-04-06T00:33:07;2.80;77.70
3069;DHT22;1545;51.728;8.796;2023-04-06T00:35:32;2.80;77.80
3069;DHT22;1545;51.728;8.796;2023-04-06T00:37:58;2.80;77.70
3069;DHT22;1545;51.728;8.796;2023-04-06T00:40:24;2.80;77.90
3069;DHT22;1545;51.728;8.796;2023-04-06T00:42:49;2.80;78.00
3069;DHT22;1545;51.728;8.796;2023-04-06T00:45:15;2.80;78.00
3069;DHT22;1545;51.728;8.796;2023-04-06T00:47:40;2.80;78.10
3069;DHT22;1545;51.728;8.796;2023-04-06T00:50:06;2.70;78.30
3069;DHT22;1545;51.728;8.796;2023-04-06T00:52:33;2.70;78.30
3069;DHT22;1545;51.728;8.796;2023-04-06T00:54:59;2.70;78.20
3069;DHT22;1545;51.728;8.796;2023-04-06T00:57:25;2.70;78.50
3069;DHT22;1545;51.728;8.796;2023-04-06T00:59:51;2.60;78.60
3069;DHT22;1545;51.728;8.796;2023-04-06T01:02:17;2.60;78.70
3069;DHT22;1545;51.728;8.796;2023-04-06T01:04:43;2.60;78.60
3069;DHT22;1545;51.728;8.796;2023-04-06T01:07:09;2.60;78.50
3069;DHT22;1545;51.728;8.796;2023-04-06T01:09:35;2.60;78.50
3069;DHT22;1545;51.728;8.796;2023-04-06T01:12:00;2.70;78.30
3069;DHT22;1545;51.728;8.796;2023-04-06T01:14:26;2.70;78.30
3069;DHT22;1545;51.728;8.796;2023-04-06T01:16:52;2.70;78.30
3069;DHT22;1545;51.728;8.796;2023-04-06T01:19:18;2.60;78.40
3069;DHT22;1545;51.728;8.796;2023-04-06T01:21:43;2.60;78.50
3069;DHT22;1545;51.728;8.796;2023-04-06T01:24:09;2.50;78.70
3069;DHT22;1545;51.728;8.796;2023-04-06T01:26:35;2.60;78.50
3069;DHT22;1545;51.728;8.796;2023-04-06T01:29:02;2.60;78.40
3069;DHT22;1545;51.728;8.796;2023-04-06T01:31:28;2.60;78.30
3069;DHT22;1545;51.728;8.796;2023-04-06T01:33:54;2.60;78.20
3069;DHT22;1545;51.728;8.796;2023-04-06T01:36:20;2.60;78.30
3069;DHT22;1545;51.728;8.796;2023-04-06T01:38:46;2.60;78.60
3069;DHT22;1545;51.728;8.796;2023-04-06T01:41:11;2.50;78.60
3069;DHT22;1545;51.728;8.796;2023-04-06T01:43:37;2.50;78.50
3069;DHT22;1545;51.728;8.796;2023-04-06T01:46:03;2.50;78.70
3069;DHT22;1545;51.728;8.796;2023-04-06T01:48:28;2.50;78.60
3069;DHT22;1545;51.728;8.796;2023-04-06T01:50:54;2.50;78.70
3069;DHT22;1545;51.728;8.796;2023-04-06T01:53:20;2.40;78.60
3069;DHT22;1545;51.728;8.796;2023-04-06T01:55:45;2.40;78.60
3069;DHT22;1545;51.728;8.796;2023-04-06T01:58:11;2.40;78.70
3069;DHT22;1545;51.728;8.796;2023-04-06T02:00:37;2.40;78.60
3069;DHT22;1545;51.728;8.796;2023-04-06T02:03:03;2.40;78.80
3069;DHT22;1545;51.728;8.796;2023-04-06T02:05:30;2.40;78.60
3069;DHT22;1545;51.728;8.796;2023-04-06T02:07:56;2.40;78.70
3069;DHT22;1545;51.728;8.796;2023-04-06T02:10:22;2.40;78.70
3069;DHT22;1545;51.728;8.796;2023-04-06T02:12:48;2.40;78.60
3069;DHT22;1545;51.728;8.796;2023-04-06T02:15:15;2.40;78.80
3069;DHT22;1545;51.728;8.796;2023-04-06T02:17:41;2.30;78.60
3069;DHT22;1545;51.728;8.796;2023-04-06T02:20:07;2.40;78.50
3069;DHT22;1545;51.728;8.796;2023-04-06T02:22:33;2.40;78.30
3069;DHT22;1545;51.728;8.796;2023-04-06T02:24:59;2.40;78.20
3069;DHT22;1545;51.728;8.796;2023-04-06T02:27:24;2.40;78.30
3069;DHT22;1545;51.728;8.796;2023-04-06T02:29:50;2.40;78.30
3069;DHT22;1545;51.728;8.796;2023-04-06T02:32:15;2.40;78.40
3069;DHT22;1545;51.728;8.796;2023-04-06T02:34:41;2.40;78.40
3069;DHT22;1545;51.728;8.796;2023-04-06T02:37:06;2.40;78.30
3069;DHT22;1545;51.728;8.796;2023-04-06T02:39:32;2.40;78.10
3069;DHT22;1545;51.728;8.796;2023-04-06T02:41:57;2.40;78.00
3069;DHT22;1545;51.728;8.796;2023-04-06T02:44:23;2.40;78.00
3069;DHT22;1545;51.728;8.796;2023-04-06T02:46:48;2.40;77.90
3069;DHT22;1545;51.728;8.796;2023-04-06T02:49:14;2.40;78.00
3069;DHT22;1545;51.728;8.796;2023-04-06T02:51:39;2.40;78.10
3069;DHT22;1545;51.728;8.796;2023-04-06T02:54:05;2.40;78.10
3069;DHT22;1545;51.728;8.796;2023-04-06T02:56:30;2.40;78.10
3069;DHT22;1545;51.728;8.796;2023-04-06T02:58:56;2.40;78.00
3069;DHT22;1545;51.728;8.796;2023-04-06T03:01:21;2.30;78.20
3069;DHT22;1545;51.728;8.796;2023-04-06T03:03:47;2.30;78.10
3069;DHT22;1545;51.728;8.796;2023-04-06T03:06:12;2.30;78.10
3069;DHT22;1545;51.728;8.796;2023-04-06T03:08:38;2.30;78.20
3069;DHT22;1545;51.728;8.796;2023-04-06T03:11:03;2.30;78.20
3069;DHT22;1545;51.728;8.796;2023-04-06T03:13:29;2.30;78.40
3069;DHT22;1545;51.728;8.796;2023-04-06T03:15:54;2.20;78.30
3069;DHT22;1545;51.728;8.796;2023-04-06T03:18:24;2.20;78.70
3069;DHT22;1545;51.728;8.796;2023-04-06T03:20:50;2.20;78.50
3069;DHT22;1545;51.728;8.796;2023-04-06T03:23:16;2.20;78.30
3069;DHT22;1545;51.728;8.796;2023-04-06T03:25:41;2.20;78.30
3069;DHT22;1545;51.728;8.796;2023-04-06T03:28:07;2.20;78.30
3069;DHT22;1545;51.728;8.796;2023-04-06T03:30:33;2.20;78.40
3069;DHT22;1545;51.728;8.796;2023-04-06T03:32:58;2.20;78.40
3069;DHT22;1545;51.728;8.796;2023-04-06T03:35:24;2.20;78.30
3069;DHT22;1545;51.728;8.796;2023-04-06T03:37:50;2.20;78.30
3069;DHT22;1545;51.728;8.796;2023-04-06T03:40:15;2.20;78.50
3069;DHT22;1545;51.728;8.796;2023-04-06T03:42:41;2.10;78.50
3069;DHT22;1545;51.728;8.796;2023-04-06T03:45:07;2.20;78.70
3069;DHT22;1545;51.728;8.796;2023-04-06T03:47:32;2.10;78.90
3069;DHT22;1545;51.728;8.796;2023-04-06T03:49:58;2.10;78.90
3069;DHT22;1545;51.728;8.796;2023-04-06T03:52:23;2.10;78.90
3069;DHT22;1545;51.728;8.796;2023-04-06T03:54:49;2.00;79.00
3069;DHT22;1545;51.728;8.796;2023-04-06T03:57:15;2.10;79.00
3069;DHT22;1545;51.728;8.796;2023-04-06T03:59:40;2.00;79.20
3069;DHT22;1545;51.728;8.796;2023-04-06T04:02:06;2.00;79.30
3069;DHT22;1545;51.728;8.796;2023-04-06T04:04:31;2.00;79.30
3069;DHT22;1545;51.728;8.796;2023-04-06T04:06:57;1.90;79.60
3069;DHT22;1545;51.728;8.796;2023-04-06T04:09:22;1.90;79.70
3069;DHT22;1545;51.728;8.796;2023-04-06T04:11:48;1.80;79.90
3069;DHT22;1545;51.728;8.796;2023-04-06T04:14:13;1.80;79.80
3069;DHT22;1545;51.728;8.796;2023-04-06T04:16:38;1.80;79.70
3069;DHT22;1545;51.728;8.796;2023-04-06T04:19:05;1.80;79.80
3069;DHT22;1545;51.728;8.796;2023-04-06T04:21:31;1.80;79.80
3069;DHT22;1545;51.728;8.796;2023-04-06T04:23:57;1.80;79.80
3069;DHT22;1545;51.728;8.796;2023-04-06T04:26:22;1.80;79.50
3069;DHT22;1545;51.728;8.796;2023-04-06T04:28:48;1.80;79.60
3069;DHT22;1545;51.728;8.796;2023-04-06T04:31:13;1.80;79.60
3069;DHT22;1545;51.728;8.796;2023-04-06T04:33:39;1.80;79.90
3069;DHT22;1545;51.728;8.796;2023-04-06T04:36:04;1.80;79.50
3069;DHT22;1545;51.728;8.796;2023-04-06T04:38:30;1.80;79.40
3069;DHT22;1545;51.728;8.796;2023-04-06T04:40:56;1.80;79.40
3069;DHT22;1545;51.728;8.796;2023-04-06T04:43:21;1.90;79.10
3069;DHT22;1545;51.728;8.796;2023-04-06T04:45:47;1.90;79.30
3069;DHT22;1545;51.728;8.796;2023-04-06T04:48:12;1.90;79.50
3069;DHT22;1545;51.728;8.796;2023-04-06T04:50:38;1.90;79.30
3069;DHT22;1545;51.728;8.796;2023-04-06T04:53:03;1.90;79.10
3069;DHT22;1545;51.728;8.796;2023-04-06T04:55:31;2.00;78.90
3069;DHT22;1545;51.728;8.796;2023-04-06T04:57:57;2.00;78.70
3069;DHT22;1545;51.728;8.796;2023-04-06T05:00:22;2.00;78.50
3069;DHT22;1545;51.728;8.796;2023-04-06T05:02:48;2.00;78.60
3069;DHT22;1545;51.728;8.796;2023-04-06T05:05:13;2.10;78.30
3069;DHT22;1545;51.728;8.796;2023-04-06T05:07:39;2.10;78.00
3069;DHT22;1545;51.728;8.796;2023-04-06T05:10:05;2.10;78.30
3069;DHT22;1545;51.728;8.796;2023-04-06T05:12:31;2.20;78.00
3069;DHT22;1545;51.728;8.796;2023-04-06T05:14:56;2.20;78.00
3069;DHT22;1545;51.728;8.796;2023-04-06T05:17:22;2.30;78.10
3069;DHT22;1545;51.728;8.796;2023-04-06T05:19:47;2.30;78.00
3069;DHT22;1545;51.728;8.796;2023-04-06T05:22:13;2.30;78.10
3069;DHT22;1545;51.728;8.796;2023-04-06T05:24:41;2.40;77.60
3069;DHT22;1545;51.728;8.796;2023-04-06T05:27:06;2.50;77.10
3069;DHT22;1545;51.728;8.796;2023-04-06T05:29:32;2.60;76.40
3069;DHT22;1545;51.728;8.796;2023-04-06T05:31:58;2.70;76.50
3069;DHT22;1545;51.728;8.796;2023-04-06T05:34:24;2.70;76.40
3069;DHT22;1545;51.728;8.796;2023-04-06T05:36:49;2.80;76.00
3069;DHT22;1545;51.728;8.796;2023-04-06T05:39:15;2.80;75.80
3069;DHT22;1545;51.728;8.796;2023-04-06T05:41:40;2.90;75.70
3069;DHT22;1545;51.728;8.796;2023-04-06T05:44:06;2.90;75.60
3069;DHT22;1545;51.728;8.796;2023-04-06T05:46:31;3.00;75.60
3069;DHT22;1545;51.728;8.796;2023-04-06T05:48:57;3.10;75.30
3069;DHT22;1545;51.728;8.796;2023-04-06T05:51:23;3.10;75.20
3069;DHT22;1545;51.728;8.796;2023-04-06T05:53:48;3.30;74.50
3069;DHT22;1545;51.728;8.796;2023-04-06T05:56:14;3.30;74.40
3069;DHT22;1545;51.728;8.796;2023-04-06T05:58:39;3.30;74.50
3069;DHT22;1545;51.728;8.796;2023-04-06T06:01:05;3.40;74.40
3069;DHT22;1545;51.728;8.796;2023-04-06T06:03:30;3.50;74.00
3069;DHT22;1545;51.728;8.796;2023-04-06T06:06:00;3.50;74.10
3069;DHT22;1545;51.728;8.796;2023-04-06T06:08:27;3.60;73.80
3069;DHT22;1545;51.728;8.796;2023-04-06T06:10:52;3.70;73.60
3069;DHT22;1545;51.728;8.796;2023-04-06T06:13:18;3.80;74.10
3069;DHT22;1545;51.728;8.796;2023-04-06T06:15:43;3.90;74.10
3069;DHT22;1545;51.728;8.796;2023-04-06T06:18:09;4.00;74.20
3069;DHT22;1545;51.728;8.796;2023-04-06T06:20:34;4.10;73.30
3069;DHT22;1545;51.728;8.796;2023-04-06T06:22:59;4.20;72.90
3069;DHT22;1545;51.728;8.796;2023-04-06T06:25:25;4.30;72.80
3069;DHT22;1545;51.728;8.796;2023-04-06T06:27:51;4.40;71.90
3069;DHT22;1545;51.728;8.796;2023-04-06T06:30:16;4.40;72.00
3069;DHT22;1545;51.728;8.796;2023-04-06T06:32:42;4.50;72.00
3069;DHT22;1545;51.728;8.796;2023-04-06T06:35:08;4.70;71.20
3069;DHT22;1545;51.728;8.796;2023-04-06T06:37:33;4.80;70.90
3069;DHT22;1545;51.728;8.796;2023-04-06T06:39:59;4.90;70.50
3069;DHT22;1545;51.728;8.796;2023-04-06T06:42:24;5.00;69.80
3069;DHT22;1545;51.728;8.796;2023-04-06T06:44:51;5.20;69.70
3069;DHT22;1545;51.728;8.796;2023-04-06T06:47:16;5.30;68.50
3069;DHT22;1545;51.728;8.796;2023-04-06T06:49:42;5.40;68.70
3069;DHT22;1545;51.728;8.796;2023-04-06T06:52:07;5.50;68.70
3069;DHT22;1545;51.728;8.796;2023-04-06T06:54:33;5.60;68.10
3069;DHT22;1545;51.728;8.796;2023-04-06T06:56:58;5.80;67.50
3069;DHT22;1545;51.728;8.796;2023-04-06T06:59:25;5.90;67.10
3069;DHT22;1545;51.728;8.796;2023-04-06T07:01:51;5.90;66.90
3069;DHT22;1545;51.728;8.796;2023-04-06T07:04:16;6.10;66.40
3069;DHT22;1545;51.728;8.796;2023-04-06T07:06:41;6.20;66.30
3069;DHT22;1545;51.728;8.796;2023-04-06T07:09:07;6.30;67.00
3069;DHT22;1545;51.728;8.796;2023-04-06T07:11:32;6.50;66.80
3069;DHT22;1545;51.728;8.796;2023-04-06T07:13:58;6.60;66.40
3069;DHT22;1545;51.728;8.796;2023-04-06T07:16:23;6.70;66.00
3069;DHT22;1545;51.728;8.796;2023-04-06T07:18:49;6.90;64.90
3069;DHT22;1545;51.728;8.796;2023-04-06T07:21:15;7.10;62.70
3069;DHT22;1545;51.728;8.796;2023-04-06T07:23:41;7.30;61.00
3069;DHT22;1545;51.728;8.796;2023-04-06T07:26:06;7.50;60.50
3069;DHT22;1545;51.728;8.796;2023-04-06T07:28:32;7.70;59.80
3069;DHT22;1545;51.728;8.796;2023-04-06T07:30:57;7.80;60.00
3069;DHT22;1545;51.728;8.796;2023-04-06T07:33:23;8.10;59.30
3069;DHT22;1545;51.728;8.796;2023-04-06T07:35:51;8.30;58.20
3069;DHT22;1545;51.728;8.796;2023-04-06T07:38:17;8.40;57.90
3069;DHT22;1545;51.728;8.796;2023-04-06T07:40:43;8.40;56.70
3069;DHT22;1545;51.728;8.796;2023-04-06T07:43:08;8.60;57.20
3069;DHT22;1545;51.728;8.796;2023-04-06T07:45:34;8.90;56.30
3069;DHT22;1545;51.728;8.796;2023-04-06T07:47:59;9.30;55.50
3069;DHT22;1545;51.728;8.796;2023-04-06T07:50:24;9.90;55.40
3069;DHT22;1545;51.728;8.796;2023-04-06T07:52:50;10.90;54.30
3069;DHT22;1545;51.728;8.796;2023-04-06T07:55:16;11.50;52.80
3069;DHT22;1545;51.728;8.796;2023-04-06T07:57:41;12.20;51.80
3069;DHT22;1545;51.728;8.796;2023-04-06T08:00:07;12.60;51.00
3069;DHT22;1545;51.728;8.796;2023-04-06T08:02:34;12.80;50.10
3069;DHT22;1545;51.728;8.796;2023-04-06T08:05:00;13.30;49.30
3069;DHT22;1545;51.728;8.796;2023-04-06T08:07:25;13.70;48.40
3069;DHT22;1545;51.728;8.796;2023-04-06T08:09:51;14.10;47.90
3069;DHT22;1545;51.728;8.796;2023-04-06T08:12:17;14.30;47.40
3069;DHT22;1545;51.728;8.796;2023-04-06T08:14:42;14.40;46.20
3069;DHT22;1545;51.728;8.796;2023-04-06T08:17:08;14.80;46.40
3069;DHT22;1545;51.728;8.796;2023-04-06T08:19:33;14.90;45.70
3069;DHT22;1545;51.728;8.796;2023-04-06T08:21:59;15.20;45.40
3069;DHT22;1545;51.728;8.796;2023-04-06T08:24:24;15.40;45.40
3069;DHT22;1545;51.728;8.796;2023-04-06T08:26:50;15.70;44.90
3069;DHT22;1545;51.728;8.796;2023-04-06T08:29:16;16.00;44.50
3069;DHT22;1545;51.728;8.796;2023-04-06T08:31:42;16.60;43.70
3069;DHT22;1545;51.728;8.796;2023-04-06T08:34:07;16.90;43.20
3069;DHT22;1545;51.728;8.796;2023-04-06T08:36:33;16.90;43.20
3069;DHT22;1545;51.728;8.796;2023-04-06T08:38:59;16.40;44.30
3069;DHT22;1545;51.728;8.796;2023-04-06T08:41:26;16.60;43.90
3069;DHT22;1545;51.728;8.796;2023-04-06T08:43:59;16.30;44.50
3069;DHT22;1545;51.728;8.796;2023-04-06T08:46:25;16.90;43.50
3069;DHT22;1545;51.728;8.796;2023-04-06T08:48:55;17.00;43.20
3069;DHT22;1545;51.728;8.796;2023-04-06T08:51:23;17.30;42.80
3069;DHT22;1545;51.728;8.796;2023-04-06T08:53:49;17.70;41.90
3069;DHT22;1545;51.728;8.796;2023-04-06T08:56:15;18.20;41.70
3069;DHT22;1545;51.728;8.796;2023-04-06T08:58:41;18.10;41.40
3069;DHT22;1545;51.728;8.796;2023-04-06T09:01:10;18.20;41.80
3069;DHT22;1545;51.728;8.796;2023-04-06T09:03:38;18.20;41.70
3069;DHT22;1545;51.728;8.796;2023-04-06T09:06:07;18.00;41.30
3069;DHT22;1545;51.728;8.796;2023-04-06T09:08:34;18.00;41.60
3069;DHT22;1545;51.728;8.796;2023-04-06T09:11:02;18.50;40.80
3069;DHT22;1545;51.728;8.796;2023-04-06T09:13:27;18.40;41.00
3069;DHT22;1545;51.728;8.796;2023-04-06T09:16:03;18.60;41.10
3069;DHT22;1545;51.728;8.796;2023-04-06T09:18:33;17.90;41.40
3069;DHT22;1545;51.728;8.796;2023-04-06T09:21:00;17.90;41.70
3069;DHT22;1545;51.728;8.796;2023-04-06T09:23:27;17.90;41.90
3069;DHT22;1545;51.728;8.796;2023-04-06T09:28:49;17.70;42.50
3069;DHT22;1545;51.728;8.796;2023-04-06T09:31:21;17.40;43.00
3069;DHT22;1545;51.728;8.796;2023-04-06T09:33:46;17.60;42.50
3069;DHT22;1545;51.728;8.796;2023-04-06T09:36:12;17.20;43.50
3069;DHT22;1545;51.728;8.796;2023-04-06T09:38:55;16.80;43.30
3069;DHT22;1545;51.728;8.796;2023-04-06T09:41:24;16.30;44.40
3069;DHT22;1545;51.728;8.796;2023-04-06T09:46:40;16.00;45.00
3069;DHT22;1545;51.728;8.796;2023-04-06T09:49:07;15.00;46.30
3069;DHT22;1545;51.728;8.796;2023-04-06T09:51:38;14.50;47.30
3069;DHT22;1545;51.728;8.796;2023-04-06T09:54:06;13.70;47.90
3069;DHT22;1545;51.728;8.796;2023-04-06T09:56:45;13.10;49.40
3069;DHT22;1545;51.728;8.796;2023-04-06T09:59:18;12.70;50.30
3069;DHT22;1545;51.728;8.796;2023-04-06T10:01:48;12.30;51.00
3069;DHT22;1545;51.728;8.796;2023-04-06T10:04:42;12.20;51.30
3069;DHT22;1545;51.728;8.796;2023-04-06T10:07:09;12.00;51.80
3069;DHT22;1545;51.728;8.796;2023-04-06T10:09:37;12.00;52.00
3069;DHT22;1545;51.728;8.796;2023-04-06T10:12:06;11.90;51.90
3069;DHT22;1545;51.728;8.796;2023-04-06T10:14:35;11.90;52.60
3069;DHT22;1545;51.728;8.796;2023-04-06T10:17:04;11.90;52.30
3069;DHT22;1545;51.728;8.796;2023-04-06T10:19:55;11.90;52.30
3069;DHT22;1545;51.728;8.796;2023-04-06T10:22:32;11.80;52.10
3069;DHT22;1545;51.728;8.796;2023-04-06T10:24:58;11.80;52.80
3069;DHT22;1545;51.728;8.796;2023-04-06T10:27:31;11.80;53.10
3069;DHT22;1545;51.728;8.796;2023-04-06T10:30:06;11.90;52.80
3069;DHT22;1545;51.728;8.796;2023-04-06T10:32:36;11.90;52.90
3069;DHT22;1545;51.728;8.796;2023-04-06T10:35:12;12.10;53.20
3069;DHT22;1545;51.728;8.796;2023-04-06T10:38:09;12.20;52.50
3069;DHT22;1545;51.728;8.796;2023-04-06T10:40:38;12.30;52.30
3069;DHT22;1545;51.728;8.796;2023-04-06T10:43:09;12.30;52.60
3069;DHT22;1545;51.728;8.796;2023-04-06T10:45:35;12.40;52.70
3069;DHT22;1545;51.728;8.796;2023-04-06T10:48:16;12.50;52.30
3069;DHT22;1545;51.728;8.796;2023-04-06T10:50:43;12.50;52.30
3069;DHT22;1545;51.728;8.796;2023-04-06T10:53:09;12.50;52.50
3069;DHT22;1545;51.728;8.796;2023-04-06T10:55:39;12.50;52.60
3069;DHT22;1545;51.728;8.796;2023-04-06T10:58:08;12.60;51.90
3069;DHT22;1545;51.728;8.796;2023-04-06T11:00:34;12.70;51.90
3069;DHT22;1545;51.728;8.796;2023-04-06T11:03:00;12.70;51.40
3069;DHT22;1545;51.728;8.796;2023-04-06T11:05:28;12.70;51.70
3069;DHT22;1545;51.728;8.796;2023-04-06T11:07:54;12.70;51.80
3069;DHT22;1545;51.728;8.796;2023-04-06T11:10:22;12.80;52.10
3069;DHT22;1545;51.728;8.796;2023-04-06T11:12:53;12.90;51.20
3069;DHT22;1545;51.728;8.796;2023-04-06T11:15:19;12.90;51.60
3069;DHT22;1545;51.728;8.796;2023-04-06T11:17:45;12.90;51.50
3069;DHT22;1545;51.728;8.796;2023-04-06T11:20:11;12.90;50.70
3069;DHT22;1545;51.728;8.796;2023-04-06T11:22:48;12.90;50.70
3069;DHT22;1545;51.728;8.796;2023-04-06T11:25:14;12.90;51.30
3069;DHT22;1545;51.728;8.796;2023-04-06T11:27:40;13.00;51.10
3069;DHT22;1545;51.728;8.796;2023-04-06T11:30:07;13.10;50.80
3069;DHT22;1545;51.728;8.796;2023-04-06T11:32:40;13.10;50.30
3069;DHT22;1545;51.728;8.796;2023-04-06T11:35:10;13.10;51.30
3069;DHT22;1545;51.728;8.796;2023-04-06T11:37:36;13.30;50.90
3069;DHT22;1545;51.728;8.796;2023-04-06T11:40:01;13.40;50.90
3069;DHT22;1545;51.728;8.796;2023-04-06T11:42:28;13.50;50.50
3069;DHT22;1545;51.728;8.796;2023-04-06T11:44:58;13.50;50.60
3069;DHT22;1545;51.728;8.796;2023-04-06T11:47:34;13.60;50.00
3069;DHT22;1545;51.728;8.796;2023-04-06T11:50:11;13.70;50.40
3069;DHT22;1545;51.728;8.796;2023-04-06T11:52:39;13.80;49.50
3069;DHT22;1545;51.728;8.796;2023-04-06T11:55:16;13.70;49.10
3069;DHT22;1545;51.728;8.796;2023-04-06T11:57:42;13.70;49.30
3069;DHT22;1545;51.728;8.796;2023-04-06T12:00:09;13.80;49.50
3069;DHT22;1545;51.728;8.796;2023-04-06T12:02:39;13.90;49.90
3069;DHT22;1545;51.728;8.796;2023-04-06T12:05:05;14.00;50.00
3069;DHT22;1545;51.728;8.796;2023-04-06T12:07:32;14.00;49.90
3069;DHT22;1545;51.728;8.796;2023-04-06T12:09:59;14.10;49.70
3069;DHT22;1545;51.728;8.796;2023-04-06T12:12:25;14.20;48.90
3069;DHT22;1545;51.728;8.796;2023-04-06T12:14:50;14.00;47.80
3069;DHT22;1545;51.728;8.796;2023-04-06T12:17:16;13.80;48.70
3069;DHT22;1545;51.728;8.796;2023-04-06T12:19:42;13.90;50.70
3069;DHT22;1545;51.728;8.796;2023-04-06T12:22:07;13.90;49.60
3069;DHT22;1545;51.728;8.796;2023-04-06T12:24:33;14.00;49.60
3069;DHT22;1545;51.728;8.796;2023-04-06T12:26:58;14.10;48.90
3069;DHT22;1545;51.728;8.796;2023-04-06T12:29:24;14.20;48.90
3069;DHT22;1545;51.728;8.796;2023-04-06T12:31:50;14.30;49.20
3069;DHT22;1545;51.728;8.796;2023-04-06T12:34:16;14.30;48.50
3069;DHT22;1545;51.728;8.796;2023-04-06T12:36:41;14.40;48.30
3069;DHT22;1545;51.728;8.796;2023-04-06T12:39:07;14.40;48.20
3069;DHT22;1545;51.728;8.796;2023-04-06T12:41:32;14.50;47.90
3069;DHT22;1545;51.728;8.796;2023-04-06T12:43:58;14.50;48.10
3069;DHT22;1545;51.728;8.796;2023-04-06T12:46:24;14.60;48.40
3069;DHT22;1545;51.728;8.796;2023-04-06T12:48:51;14.70;48.10
3069;DHT22;1545;51.728;8.796;2023-04-06T12:51:19;14.60;48.00
3069;DHT22;1545;51.728;8.796;2023-04-06T12:53:45;14.70;47.70
3069;DHT22;1545;51.728;8.796;2023-04-06T12:56:13;14.70;45.90
3069;DHT22;1545;51.728;8.796;2023-04-06T12:58:39;14.70;44.70
3069;DHT22;1545;51.728;8.796;2023-04-06T13:01:06;14.70;43.90
3069;DHT22;1545;51.728;8.796;2023-04-06T13:03:32;14.60;43.10
3069;DHT22;1545;51.728;8.796;2023-04-06T13:06:00;14.60;42.70
3069;DHT22;1545;51.728;8.796;2023-04-06T13:08:26;14.60;43.20
3069;DHT22;1545;51.728;8.796;2023-04-06T13:10:52;14.60;44.10
3069;DHT22;1545;51.728;8.796;2023-04-06T13:13:23;14.70;43.50
3069;DHT22;1545;51.728;8.796;2023-04-06T13:15:49;14.80;43.00
3069;DHT22;1545;51.728;8.796;2023-04-06T13:18:15;14.70;42.50
3069;DHT22;1545;51.728;8.796;2023-04-06T13:20:41;14.70;40.90
3069;DHT22;1545;51.728;8.796;2023-04-06T13:23:07;14.60;42.00
3069;DHT22;1545;51.728;8.796;2023-04-06T13:25:32;14.70;41.90
3069;DHT22;1545;51.728;8.796;2023-04-06T13:27:58;14.70;41.20
3069;DHT22;1545;51.728;8.796;2023-04-06T13:30:24;14.70;41.70
3069;DHT22;1545;51.728;8.796;2023-04-06T13:32:50;14.80;43.30
3069;DHT22;1545;51.728;8.796;2023-04-06T13:35:15;15.00;42.70
3069;DHT22;1545;51.728;8.796;2023-04-06T13:37:42;15.00;43.60
3069;DHT22;1545;51.728;8.796;2023-04-06T13:40:08;15.10;43.00
3069;DHT22;1545;51.728;8.796;2023-04-06T13:42:33;14.90;43.20
3069;DHT22;1545;51.728;8.796;2023-04-06T13:45:00;14.90;43.50
3069;DHT22;1545;51.728;8.796;2023-04-06T13:47:26;14.80;43.50
3069;DHT22;1545;51.728;8.796;2023-04-06T13:49:51;14.70;43.90
3069;DHT22;1545;51.728;8.796;2023-04-06T13:52:18;14.70;43.00
3069;DHT22;1545;51.728;8.796;2023-04-06T13:54:44;14.70;43.60
3069;DHT22;1545;51.728;8.796;2023-04-06T13:57:10;14.70;44.80
3069;DHT22;1545;51.728;8.796;2023-04-06T13:59:36;14.80;44.60
3069;DHT22;1545;51.728;8.796;2023-04-06T14:02:06;14.90;44.20
3069;DHT22;1545;51.728;8.796;2023-04-06T14:04:31;15.00;43.60
3069;DHT22;1545;51.728;8.796;2023-04-06T14:06:58;14.90;44.00
3069;DHT22;1545;51.728;8.796;2023-04-06T14:09:24;15.00;44.80
3069;DHT22;1545;51.728;8.796;2023-04-06T14:11:50;15.10;45.30
3069;DHT22;1545;51.728;8.796;2023-04-06T14:14:16;15.20;45.30
3069;DHT22;1545;51.728;8.796;2023-04-06T14:16:41;15.30;44.90
3069;DHT22;1545;51.728;8.796;2023-04-06T14:19:09;15.30;44.40
3069;DHT22;1545;51.728;8.796;2023-04-06T14:21:35;15.30;44.90
3069;DHT22;1545;51.728;8.796;2023-04-06T14:24:01;15.30;44.10
3069;DHT22;1545;51.728;8.796;2023-04-06T14:26:27;15.50;44.00
3069;DHT22;1545;51.728;8.796;2023-04-06T14:28:53;15.70;45.00
3069;DHT22;1545;51.728;8.796;2023-04-06T14:31:18;15.70;44.30
3069;DHT22;1545;51.728;8.796;2023-04-06T14:33:44;15.60;43.90
3069;DHT22;1545;51.728;8.796;2023-04-06T14:36:10;15.50;44.60
3069;DHT22;1545;51.728;8.796;2023-04-06T14:38:36;15.30;44.80
3069;DHT22;1545;51.728;8.796;2023-04-06T14:41:02;15.20;45.40
3069;DHT22;1545;51.728;8.796;2023-04-06T14:43:27;15.10;45.50
3069;DHT22;1545;51.728;8.796;2023-04-06T14:45:53;15.10;45.40
3069;DHT22;1545;51.728;8.796;2023-04-06T14:48:18;15.10;45.40
3069;DHT22;1545;51.728;8.796;2023-04-06T14:51:02;15.00;45.00
3069;DHT22;1545;51.728;8.796;2023-04-06T14:53:28;15.00;45.30
3069;DHT22;1545;51.728;8.796;2023-04-06T14:55:55;15.00;45.60
3069;DHT22;1545;51.728;8.796;2023-04-06T14:58:21;15.00;45.40
3069;DHT22;1545;51.728;8.796;2023-04-06T15:00:47;15.20;45.10
3069;DHT22;1545;51.728;8.796;2023-04-06T15:03:13;15.30;44.40
3069;DHT22;1545;51.728;8.796;2023-04-06T15:05:39;15.40;43.90
3069;DHT22;1545;51.728;8.796;2023-04-06T15:08:04;15.30;44.00
3069;DHT22;1545;51.728;8.796;2023-04-06T15:10:33;15.30;44.30
3069;DHT22;1545;51.728;8.796;2023-04-06T15:12:59;15.40;44.70
3069;DHT22;1545;51.728;8.796;2023-04-06T15:15:24;15.50;45.20
3069;DHT22;1545;51.728;8.796;2023-04-06T15:17:50;15.80;44.90
3069;DHT22;1545;51.728;8.796;2023-04-06T15:20:15;15.90;44.20
3069;DHT22;1545;51.728;8.796;2023-04-06T15:22:41;15.90;44.50
3069;DHT22;1545;51.728;8.796;2023-04-06T15:25:07;15.90;44.30
3069;DHT22;1545;51.728;8.796;2023-04-06T15:27:32;16.00;44.60
3069;DHT22;1545;51.728;8.796;2023-04-06T15:29:58;16.00;44.90
3069;DHT22;1545;51.728;8.796;2023-04-06T15:32:24;16.10;44.90
3069;DHT22;1545;51.728;8.796;2023-04-06T15:34:50;16.10;44.80
3069;DHT22;1545;51.728;8.796;2023-04-06T15:37:15;16.20;44.80
3069;DHT22;1545;51.728;8.796;2023-04-06T15:39:41;16.20;45.00
3069;DHT22;1545;51.728;8.796;2023-04-06T15:42:06;16.20;44.60
3069;DHT22;1545;51.728;8.796;2023-04-06T15:44:32;15.90;44.60
3069;DHT22;1545;51.728;8.796;2023-04-06T15:46:57;15.60;45.10
3069;DHT22;1545;51.728;8.796;2023-04-06T15:49:23;15.40;45.80
3069;DHT22;1545;51.728;8.796;2023-04-06T15:51:50;15.30;46.40
3069;DHT22;1545;51.728;8.796;2023-04-06T15:54:15;15.10;46.30
3069;DHT22;1545;51.728;8.796;2023-04-06T15:56:42;14.90;46.30
3069;DHT22;1545;51.728;8.796;2023-04-06T15:59:08;14.80;46.50
3069;DHT22;1545;51.728;8.796;2023-04-06T16:01:33;14.70;46.30
3069;DHT22;1545;51.728;8.796;2023-04-06T16:03:59;14.60;46.50
3069;DHT22;1545;51.728;8.796;2023-04-06T16:06:24;14.40;46.20
3069;DHT22;1545;51.728;8.796;2023-04-06T16:08:51;14.40;46.60
3069;DHT22;1545;51.728;8.796;2023-04-06T16:11:17;14.40;46.70